sensor_id;sensor_type;location;lat;lon;timestamp;temperature;humidity
8412;HTU21D;4243;49.296;11.348;2022-08-19T00:00:09;18.99;118.99
8412;HTU21D;4243;49.296;11.348;2022-08-19T00:02:37;18.99;118.99
8412;HTU21D;4243;49.296;11.348;2022-08-19T00:05:18;19.02;118.99
8412;HTU21D;4243;49.296;11.348;2022-08-19T00:07:47;19.01;118.99
8412;HTU21D;4243;49.296;11.348;2022-08-19T00:10:16;18.97;118.99
8412;HTU21D;4243;49.296;11.348;2022-08-19T00:12:46;19.02;118.99
8412;HTU21D;4243;49.296;11.348;2022-08-19T00:15:17;19.05;118.99
8412;HTU21D;4243;49.296;11.348;2022-08-19T00:17:46;19.12;118.99
8412;HTU21D;4243;49.296;11.348;2022-08-19T00:20:16;19.12;118.99
8412;HTU21D;4243;49.296;11.348;2022-08-19T00:22:45;19.10;1.00
8412;HTU21D;4243;49.296;11.348;2022-08-19T00:22:46;19.10;118.99
8412;HTU21D;4243;49.296;11.348;2022-08-19T00:25:15;19.10;29.80
8412;HTU21D;4243;49.296;11.348;2022-08-19T00:25:16;19.16;118.99
8412;HTU21D;4243;49.296;11.348;2022-08-19T00:27:43;19.15;118.99
8412;HTU21D;4243;49.296;11.348;2022-08-19T00:30:11;19.10;99.90
8412;HTU21D;4243;49.296;11.348;2022-08-19T00:30:11;19.15;118.99
8412;HTU21D;4243;49.296;11.348;2022-08-19T00:32:39;19.10;118.99
8412;HTU21D;4243;49.296;11.348;2022-08-19T00:32:39;19.10;99.90
8412;HTU21D;4243;49.296;11.348;2022-08-19T00:35:07;19.05;118.99
8412;HTU21D;4243;49.296;11.348;2022-08-19T00:37:36;19.05;118.99
8412;HTU21D;4243;49.296;11.348;2022-08-19T00:40:05;19.00;99.90
8412;HTU21D;4243;49.296;11.348;2022-08-19T00:40:06;18.99;118.99
8412;HTU21D;4243;49.296;11.348;2022-08-19T00:42:33;19.10;99.90
8412;HTU21D;4243;49.296;11.348;2022-08-19T00:42:34;18.99;118.99
8412;HTU21D;4243;49.296;11.348;2022-08-19T00:45:02;18.97;118.99
8412;HTU21D;4243;49.296;11.348;2022-08-19T00:47:29;18.96;118.99
8412;HTU21D;4243;49.296;11.348;2022-08-19T00:47:29;19.10;99.90
8412;HTU21D;4243;49.296;11.348;2022-08-19T00:49:58;18.99;118.99
8412;HTU21D;4243;49.296;11.348;2022-08-19T00:52:30;19.00;118.99
8412;HTU21D;4243;49.296;11.348;2022-08-19T00:55:00;19.02;118.99
8412;HTU21D;4243;49.296;11.348;2022-08-19T00:57:51;19.06;118.99
8412;HTU21D;4243;49.296;11.348;2022-08-19T01:00:23;18.98;118.99
8412;HTU21D;4243;49.296;11.348;2022-08-19T01:02:52;19.03;118.99
8412;HTU21D;4243;49.296;11.348;2022-08-19T01:05:26;19.01;118.99
8412;HTU21D;4243;49.296;11.348;2022-08-19T01:07:56;19.10;1.00
8412;HTU21D;4243;49.296;11.348;2022-08-19T01:07:57;18.94;118.99
8412;HTU21D;4243;49.296;11.348;2022-08-19T01:10:29;19.10;1.00
8412;HTU21D;4243;49.296;11.348;2022-08-19T01:10:31;18.93;118.99
8412;HTU21D;4243;49.296;11.348;2022-08-19T01:13:04;19.10;1.00
8412;HTU21D;4243;49.296;11.348;2022-08-19T01:13:04;18.92;118.99
8412;HTU21D;4243;49.296;11.348;2022-08-19T01:15:38;18.91;118.99
8412;HTU21D;4243;49.296;11.348;2022-08-19T01:18:11;18.87;118.99
8412;HTU21D;4243;49.296;11.348;2022-08-19T01:20:40;19.00;1.00
8412;HTU21D;4243;49.296;11.348;2022-08-19T01:20:41;18.85;118.99
8412;HTU21D;4243;49.296;11.348;2022-08-19T01:23:09;18.85;118.99
8412;HTU21D;4243;49.296;11.348;2022-08-19T01:25:49;19.10;1.00
8412;HTU21D;4243;49.296;11.348;2022-08-19T01:25:51;18.88;118.99
8412;HTU21D;4243;49.296;11.348;2022-08-19T01:28:25;18.87;118.99
8412;HTU21D;4243;49.296;11.348;2022-08-19T01:31:07;19.10;1.00
8412;HTU21D;4243;49.296;11.348;2022-08-19T01:31:09;18.88;118.99
8412;HTU21D;4243;49.296;11.348;2022-08-19T01:33:56;18.91;118.99
8412;HTU21D;4243;49.296;11.348;2022-08-19T01:36:31;19.10;1.00
8412;HTU21D;4243;49.296;11.348;2022-08-19T01:39:04;18.88;118.99
8412;HTU21D;4243;49.296;11.348;2022-08-19T01:41:34;18.92;118.99
8412;HTU21D;4243;49.296;11.348;2022-08-19T01:44:02;18.93;118.99
8412;HTU21D;4243;49.296;11.348;2022-08-19T01:46:45;19.30;99.90
8412;HTU21D;4243;49.296;11.348;2022-08-19T01:46:47;18.95;118.99
8412;HTU21D;4243;49.296;11.348;2022-08-19T01:49:16;19.30;99.90
8412;HTU21D;4243;49.296;11.348;2022-08-19T01:49:18;18.97;118.99
8412;HTU21D;4243;49.296;11.348;2022-08-19T01:51:47;18.98;118.99
8412;HTU21D;4243;49.296;11.348;2022-08-19T01:54:17;18.98;118.99
8412;HTU21D;4243;49.296;11.348;2022-08-19T01:57:00;18.97;118.99
8412;HTU21D;4243;49.296;11.348;2022-08-19T01:59:31;18.94;118.99
8412;HTU21D;4243;49.296;11.348;2022-08-19T02:01:59;18.94;118.99
8412;HTU21D;4243;49.296;11.348;2022-08-19T02:04:26;18.92;118.99
8412;HTU21D;4243;49.296;11.348;2022-08-19T02:06:54;18.91;118.99
8412;HTU21D;4243;49.296;11.348;2022-08-19T02:09:21;18.93;118.99
8412;HTU21D;4243;49.296;11.348;2022-08-19T02:11:49;18.87;118.99
8412;HTU21D;4243;49.296;11.348;2022-08-19T02:14:16;18.89;118.99
8412;HTU21D;4243;49.296;11.348;2022-08-19T02:16:44;18.95;118.99
8412;HTU21D;4243;49.296;11.348;2022-08-19T02:19:11;18.95;118.99
8412;HTU21D;4243;49.296;11.348;2022-08-19T02:21:39;18.89;118.99
8412;HTU21D;4243;49.296;11.348;2022-08-19T02:24:07;18.86;118.99
8412;HTU21D;4243;49.296;11.348;2022-08-19T02:26:34;18.88;118.99
8412;HTU21D;4243;49.296;11.348;2022-08-19T02:29:02;18.88;118.99
8412;HTU21D;4243;49.296;11.348;2022-08-19T02:31:29;18.88;118.99
8412;HTU21D;4243;49.296;11.348;2022-08-19T02:33:57;18.80;118.99
8412;HTU21D;4243;49.296;11.348;2022-08-19T02:36:25;18.74;118.99
8412;HTU21D;4243;49.296;11.348;2022-08-19T02:38:53;19.20;1.00
8412;HTU21D;4243;49.296;11.348;2022-08-19T02:38:53;18.76;118.99
8412;HTU21D;4243;49.296;11.348;2022-08-19T02:41:26;18.79;118.99
8412;HTU21D;4243;49.296;11.348;2022-08-19T02:43:59;19.30;1.00
8412;HTU21D;4243;49.296;11.348;2022-08-19T02:44:00;18.82;118.99
8412;HTU21D;4243;49.296;11.348;2022-08-19T02:46:49;18.86;118.99
8412;HTU21D;4243;49.296;11.348;2022-08-19T02:49:18;18.88;118.99
8412;HTU21D;4243;49.296;11.348;2022-08-19T02:51:46;18.88;118.99
8412;HTU21D;4243;49.296;11.348;2022-08-19T02:54:15;18.91;118.99
8412;HTU21D;4243;49.296;11.348;2022-08-19T02:56:44;18.95;118.99
8412;HTU21D;4243;49.296;11.348;2022-08-19T02:59:12;18.88;118.99
8412;HTU21D;4243;49.296;11.348;2022-08-19T03:01:41;18.84;118.99
8412;HTU21D;4243;49.296;11.348;2022-08-19T03:04:11;18.84;118.99
8412;HTU21D;4243;49.296;11.348;2022-08-19T03:06:41;18.79;118.99
8412;HTU21D;4243;49.296;11.348;2022-08-19T03:09:11;18.81;118.99
8412;HTU21D;4243;49.296;11.348;2022-08-19T03:11:39;18.79;118.99
8412;HTU21D;4243;49.296;11.348;2022-08-19T03:14:09;18.77;118.99
8412;HTU21D;4243;49.296;11.348;2022-08-19T03:16:48;18.72;118.99
8412;HTU21D;4243;49.296;11.348;2022-08-19T03:19:18;19.30;1.00
8412;HTU21D;4243;49.296;11.348;2022-08-19T03:19:19;18.70;118.99
8412;HTU21D;4243;49.296;11.348;2022-08-19T03:21:47;19.30;1.00
8412;HTU21D;4243;49.296;11.348;2022-08-19T03:21:48;18.69;118.99
8412;HTU21D;4243;49.296;11.348;2022-08-19T03:24:16;18.72;118.99
8412;HTU21D;4243;49.296;11.348;2022-08-19T03:26:49;18.78;118.99
8412;HTU21D;4243;49.296;11.348;2022-08-19T03:29:20;18.78;118.99
8412;HTU21D;4243;49.296;11.348;2022-08-19T03:31:58;18.82;118.99
8412;HTU21D;4243;49.296;11.348;2022-08-19T03:34:33;18.84;118.99
8412;HTU21D;4243;49.296;11.348;2022-08-19T03:37:08;18.82;118.99
8412;HTU21D;4243;49.296;11.348;2022-08-19T03:39:40;18.79;118.99
8412;HTU21D;4243;49.296;11.348;2022-08-19T03:42:11;18.74;118.99
8412;HTU21D;4243;49.296;11.348;2022-08-19T03:44:59;18.74;118.99
8412;HTU21D;4243;49.296;11.348;2022-08-19T03:47:26;18.73;118.99
8412;HTU21D;4243;49.296;11.348;2022-08-19T03:49:54;18.73;118.99
8412;HTU21D;4243;49.296;11.348;2022-08-19T03:52:21;18.73;118.99
8412;HTU21D;4243;49.296;11.348;2022-08-19T03:54:49;18.76;118.99
8412;HTU21D;4243;49.296;11.348;2022-08-19T03:57:16;18.72;118.99
8412;HTU21D;4243;49.296;11.348;2022-08-19T03:59:44;18.72;118.99
8412;HTU21D;4243;49.296;11.348;2022-08-19T04:02:12;18.77;118.99
8412;HTU21D;4243;49.296;11.348;2022-08-19T04:04:42;18.72;118.99
8412;HTU21D;4243;49.296;11.348;2022-08-19T04:07:11;18.72;118.99
8412;HTU21D;4243;49.296;11.348;2022-08-19T04:09:43;18.73;118.99
8412;HTU21D;4243;49.296;11.348;2022-08-19T04:12:10;19.30;1.00
8412;HTU21D;4243;49.296;11.348;2022-08-19T04:12:10;18.71;118.99
8412;HTU21D;4243;49.296;11.348;2022-08-19T04:14:38;18.70;118.99
8412;HTU21D;4243;49.296;11.348;2022-08-19T04:17:06;18.66;118.99
8412;HTU21D;4243;49.296;11.348;2022-08-19T04:19:35;18.69;118.99
8412;HTU21D;4243;49.296;11.348;2022-08-19T04:22:03;18.64;118.99
8412;HTU21D;4243;49.296;11.348;2022-08-19T04:24:31;18.64;118.99
8412;HTU21D;4243;49.296;11.348;2022-08-19T04:27:01;18.67;118.99
8412;HTU21D;4243;49.296;11.348;2022-08-19T04:29:29;18.69;118.99
8412;HTU21D;4243;49.296;11.348;2022-08-19T04:31:57;19.30;54.10
8412;HTU21D;4243;49.296;11.348;2022-08-19T04:31:58;18.67;118.99
8412;HTU21D;4243;49.296;11.348;2022-08-19T04:34:27;18.73;118.99
8412;HTU21D;4243;49.296;11.348;2022-08-19T04:36:58;18.74;118.99
8412;HTU21D;4243;49.296;11.348;2022-08-19T04:39:29;18.73;118.99
8412;HTU21D;4243;49.296;11.348;2022-08-19T04:42:17;18.71;118.99
8412;HTU21D;4243;49.296;11.348;2022-08-19T04:45:05;18.74;118.99
8412;HTU21D;4243;49.296;11.348;2022-08-19T04:47:40;18.74;118.99
8412;HTU21D;4243;49.296;11.348;2022-08-19T04:50:27;18.74;118.99
8412;HTU21D;4243;49.296;11.348;2022-08-19T04:52:55;18.78;118.99
8412;HTU21D;4243;49.296;11.348;2022-08-19T04:55:23;18.80;118.99
8412;HTU21D;4243;49.296;11.348;2022-08-19T04:57:54;18.83;118.99
8412;HTU21D;4243;49.296;11.348;2022-08-19T05:00:22;18.85;118.99
8412;HTU21D;4243;49.296;11.348;2022-08-19T05:02:50;18.85;118.99
8412;HTU21D;4243;49.296;11.348;2022-08-19T05:05:18;18.88;118.99
8412;HTU21D;4243;49.296;11.348;2022-08-19T05:07:46;18.85;118.99
8412;HTU21D;4243;49.296;11.348;2022-08-19T05:10:14;18.88;118.99
8412;HTU21D;4243;49.296;11.348;2022-08-19T05:12:42;18.86;118.99
8412;HTU21D;4243;49.296;11.348;2022-08-19T05:15:09;18.89;118.99
8412;HTU21D;4243;49.296;11.348;2022-08-19T05:17:37;18.88;118.99
8412;HTU21D;4243;49.296;11.348;2022-08-19T05:20:07;18.92;118.99
8412;HTU21D;4243;49.296;11.348;2022-08-19T05:22:55;18.94;118.99
8412;HTU21D;4243;49.296;11.348;2022-08-19T05:25:23;18.97;118.99
8412;HTU21D;4243;49.296;11.348;2022-08-19T05:27:52;19.01;118.99
8412;HTU21D;4243;49.296;11.348;2022-08-19T05:30:19;19.00;118.99
8412;HTU21D;4243;49.296;11.348;2022-08-19T05:33:07;19.05;118.99
8412;HTU21D;4243;49.296;11.348;2022-08-19T05:35:39;19.05;118.99
8412;HTU21D;4243;49.296;11.348;2022-08-19T05:38:08;19.07;118.99
8412;HTU21D;4243;49.296;11.348;2022-08-19T05:40:36;19.10;118.99
8412;HTU21D;4243;49.296;11.348;2022-08-19T05:43:06;19.70;99.90
8412;HTU21D;4243;49.296;11.348;2022-08-19T05:43:07;19.13;118.99
8412;HTU21D;4243;49.296;11.348;2022-08-19T05:45:40;19.15;118.99
8412;HTU21D;4243;49.296;11.348;2022-08-19T05:48:10;19.70;99.90
8412;HTU21D;4243;49.296;11.348;2022-08-19T05:48:10;19.24;118.99
8412;HTU21D;4243;49.296;11.348;2022-08-19T05:50:39;19.28;118.99
8412;HTU21D;4243;49.296;11.348;2022-08-19T05:53:08;19.31;118.99
8412;HTU21D;4243;49.296;11.348;2022-08-19T05:55:36;19.70;99.90
8412;HTU21D;4243;49.296;11.348;2022-08-19T05:55:36;19.30;118.99
8412;HTU21D;4243;49.296;11.348;2022-08-19T05:58:05;19.33;118.99
8412;HTU21D;4243;49.296;11.348;2022-08-19T06:00:35;19.36;118.99
8412;HTU21D;4243;49.296;11.348;2022-08-19T06:03:03;19.37;118.99
8412;HTU21D;4243;49.296;11.348;2022-08-19T06:05:40;19.40;118.99
8412;HTU21D;4243;49.296;11.348;2022-08-19T06:08:18;19.42;118.99
8412;HTU21D;4243;49.296;11.348;2022-08-19T06:11:13;19.47;118.99
8412;HTU21D;4243;49.296;11.348;2022-08-19T06:13:42;19.47;118.99
8412;HTU21D;4243;49.296;11.348;2022-08-19T06:16:10;19.51;118.99
8412;HTU21D;4243;49.296;11.348;2022-08-19T06:18:38;19.54;118.99
8412;HTU21D;4243;49.296;11.348;2022-08-19T06:21:05;19.59;118.99
8412;HTU21D;4243;49.296;11.348;2022-08-19T06:23:32;19.80;99.90
8412;HTU21D;4243;49.296;11.348;2022-08-19T06:23:32;19.66;118.99
8412;HTU21D;4243;49.296;11.348;2022-08-19T06:26:00;19.90;99.90
8412;HTU21D;4243;49.296;11.348;2022-08-19T06:26:00;19.70;118.99
8412;HTU21D;4243;49.296;11.348;2022-08-19T06:28:27;19.72;118.99
8412;HTU21D;4243;49.296;11.348;2022-08-19T06:30:55;19.75;118.99
8412;HTU21D;4243;49.296;11.348;2022-08-19T06:33:22;19.74;118.99
8412;HTU21D;4243;49.296;11.348;2022-08-19T06:35:50;19.79;118.99
8412;HTU21D;4243;49.296;11.348;2022-08-19T06:38:17;19.89;118.99
8412;HTU21D;4243;49.296;11.348;2022-08-19T06:40:45;19.96;118.99
8412;HTU21D;4243;49.296;11.348;2022-08-19T06:43:12;20.03;118.99
8412;HTU21D;4243;49.296;11.348;2022-08-19T06:45:44;20.12;118.99
8412;HTU21D;4243;49.296;11.348;2022-08-19T06:48:13;20.20;99.90
8412;HTU21D;4243;49.296;11.348;2022-08-19T06:48:13;20.14;118.99
8412;HTU21D;4243;49.296;11.348;2022-08-19T06:50:41;20.20;118.99
8412;HTU21D;4243;49.296;11.348;2022-08-19T06:53:08;20.28;118.99
8412;HTU21D;4243;49.296;11.348;2022-08-19T06:55:36;20.27;118.99
8412;HTU21D;4243;49.296;11.348;2022-08-19T06:58:04;20.20;99.90
8412;HTU21D;4243;49.296;11.348;2022-08-19T06:58:05;20.27;118.99
8412;HTU21D;4243;49.296;11.348;2022-08-19T07:00:33;20.42;118.99
8412;HTU21D;4243;49.296;11.348;2022-08-19T07:03:00;20.50;118.99
8412;HTU21D;4243;49.296;11.348;2022-08-19T07:05:41;20.63;118.99
8412;HTU21D;4243;49.296;11.348;2022-08-19T07:08:13;20.76;118.99
8412;HTU21D;4243;49.296;11.348;2022-08-19T07:10:44;20.88;118.99
8412;HTU21D;4243;49.296;11.348;2022-08-19T07:13:11;21.03;118.99
8412;HTU21D;4243;49.296;11.348;2022-08-19T07:15:39;21.23;118.99
8412;HTU21D;4243;49.296;11.348;2022-08-19T07:18:06;21.42;118.99
8412;HTU21D;4243;49.296;11.348;2022-08-19T07:20:38;21.00;99.90
8412;HTU21D;4243;49.296;11.348;2022-08-19T07:20:39;21.61;118.99
8412;HTU21D;4243;49.296;11.348;2022-08-19T07:23:08;21.00;99.90
8412;HTU21D;4243;49.296;11.348;2022-08-19T07:23:08;21.72;118.99
8412;HTU21D;4243;49.296;11.348;2022-08-19T07:25:42;21.69;118.99
8412;HTU21D;4243;49.296;11.348;2022-08-19T07:28:10;21.10;99.90
8412;HTU21D;4243;49.296;11.348;2022-08-19T07:28:10;21.69;118.99
8412;HTU21D;4243;49.296;11.348;2022-08-19T07:30:51;21.74;118.99
8412;HTU21D;4243;49.296;11.348;2022-08-19T07:33:19;21.77;118.99
8412;HTU21D;4243;49.296;11.348;2022-08-19T07:35:46;21.81;118.99
8412;HTU21D;4243;49.296;11.348;2022-08-19T07:38:15;21.84;118.99
8412;HTU21D;4243;49.296;11.348;2022-08-19T07:40:44;21.91;118.99
8412;HTU21D;4243;49.296;11.348;2022-08-19T07:43:13;21.93;118.99
8412;HTU21D;4243;49.296;11.348;2022-08-19T07:45:44;21.96;118.99
8412;HTU21D;4243;49.296;11.348;2022-08-19T07:48:12;21.93;118.99
8412;HTU21D;4243;49.296;11.348;2022-08-19T07:50:39;21.92;118.99
8412;HTU21D;4243;49.296;11.348;2022-08-19T07:53:07;21.90;118.99
8412;HTU21D;4243;49.296;11.348;2022-08-19T07:55:35;21.78;118.99
8412;HTU21D;4243;49.296;11.348;2022-08-19T07:58:10;20.80;99.90
8412;HTU21D;4243;49.296;11.348;2022-08-19T07:58:11;21.57;118.99
8412;HTU21D;4243;49.296;11.348;2022-08-19T08:03:53;21.17;118.99
8412;HTU21D;4243;49.296;11.348;2022-08-19T08:06:40;21.00;118.99
8412;HTU21D;4243;49.296;11.348;2022-08-19T08:09:33;20.94;118.99
8412;HTU21D;4243;49.296;11.348;2022-08-19T08:12:09;20.92;118.99
8412;HTU21D;4243;49.296;11.348;2022-08-19T08:15:03;21.03;118.99
8412;HTU21D;4243;49.296;11.348;2022-08-19T08:17:38;21.11;118.99
8412;HTU21D;4243;49.296;11.348;2022-08-19T08:20:16;20.80;99.90
8412;HTU21D;4243;49.296;11.348;2022-08-19T08:20:16;21.07;118.99
8412;HTU21D;4243;49.296;11.348;2022-08-19T08:22:45;21.03;118.99
8412;HTU21D;4243;49.296;11.348;2022-08-19T08:25:33;20.95;118.99
8412;HTU21D;4243;49.296;11.348;2022-08-19T08:28:03;20.88;118.99
8412;HTU21D;4243;49.296;11.348;2022-08-19T08:30:31;20.78;118.99
8412;HTU21D;4243;49.296;11.348;2022-08-19T08:33:03;20.76;118.99
8412;HTU21D;4243;49.296;11.348;2022-08-19T08:35:31;20.74;118.99
8412;HTU21D;4243;49.296;11.348;2022-08-19T08:37:59;20.72;118.99
8412;HTU21D;4243;49.296;11.348;2022-08-19T08:40:52;20.74;118.99
8412;HTU21D;4243;49.296;11.348;2022-08-19T08:43:32;20.74;118.99
8412;HTU21D;4243;49.296;11.348;2022-08-19T08:46:17;20.76;118.99
8412;HTU21D;4243;49.296;11.348;2022-08-19T08:49:25;20.86;118.99
8412;HTU21D;4243;49.296;11.348;2022-08-19T08:52:02;20.93;118.99
8412;HTU21D;4243;49.296;11.348;2022-08-19T08:54:40;20.98;118.99
8412;HTU21D;4243;49.296;11.348;2022-08-19T09:00:22;20.93;118.99
8412;HTU21D;4243;49.296;11.348;2022-08-19T09:02:58;20.94;118.99
8412;HTU21D;4243;49.296;11.348;2022-08-19T09:05:46;20.85;118.99
8412;HTU21D;4243;49.296;11.348;2022-08-19T09:08:50;20.78;118.99
8412;HTU21D;4243;49.296;11.348;2022-08-19T09:14:48;20.81;118.99
8412;HTU21D;4243;49.296;11.348;2022-08-19T09:17:22;20.90;118.99
8412;HTU21D;4243;49.296;11.348;2022-08-19T09:19:59;20.70;99.90
8412;HTU21D;4243;49.296;11.348;2022-08-19T09:20:01;20.98;118.99
8412;HTU21D;4243;49.296;11.348;2022-08-19T09:22:36;20.90;99.90
8412;HTU21D;4243;49.296;11.348;2022-08-19T09:22:37;21.17;118.99
8412;HTU21D;4243;49.296;11.348;2022-08-19T09:25:07;21.31;118.99
8412;HTU21D;4243;49.296;11.348;2022-08-19T09:27:38;21.44;118.99
8412;HTU21D;4243;49.296;11.348;2022-08-19T09:30:40;21.49;118.99
8412;HTU21D;4243;49.296;11.348;2022-08-19T09:33:07;21.30;91.70
8412;HTU21D;4243;49.296;11.348;2022-08-19T09:33:07;21.61;118.99
8412;HTU21D;4243;49.296;11.348;2022-08-19T09:35:35;21.72;118.99
8412;HTU21D;4243;49.296;11.348;2022-08-19T09:38:20;21.30;31.20
8412;HTU21D;4243;49.296;11.348;2022-08-19T09:38:20;21.82;118.99
8412;HTU21D;4243;49.296;11.348;2022-08-19T09:40:48;21.20;31.30
8412;HTU21D;4243;49.296;11.348;2022-08-19T09:40:48;21.87;118.99
8412;HTU21D;4243;49.296;11.348;2022-08-19T09:43:17;21.91;118.99
8412;HTU21D;4243;49.296;11.348;2022-08-19T09:46:00;21.85;118.99
8412;HTU21D;4243;49.296;11.348;2022-08-19T09:48:28;21.81;118.99
8412;HTU21D;4243;49.296;11.348;2022-08-19T09:51:03;21.79;118.99
8412;HTU21D;4243;49.296;11.348;2022-08-19T09:53:32;21.77;118.99
8412;HTU21D;4243;49.296;11.348;2022-08-19T09:56:00;21.67;118.99
8412;HTU21D;4243;49.296;11.348;2022-08-19T09:56:00;21.00;30.30
8412;HTU21D;4243;49.296;11.348;2022-08-19T09:58:31;21.54;118.99
8412;HTU21D;4243;49.296;11.348;2022-08-19T10:01:00;21.45;118.99
8412;HTU21D;4243;49.296;11.348;2022-08-19T10:01:00;20.80;29.60
8412;HTU21D;4243;49.296;11.348;2022-08-19T10:03:31;21.29;118.99
8412;HTU21D;4243;49.296;11.348;2022-08-19T10:06:01;20.60;47.50
8412;HTU21D;4243;49.296;11.348;2022-08-19T10:06:04;21.08;118.99
8412;HTU21D;4243;49.296;11.348;2022-08-19T10:08:41;20.94;118.99
8412;HTU21D;4243;49.296;11.348;2022-08-19T10:11:17;20.79;118.99
8412;HTU21D;4243;49.296;11.348;2022-08-19T10:14:01;20.70;118.99
8412;HTU21D;4243;49.296;11.348;2022-08-19T10:16:29;20.61;118.99
8412;HTU21D;4243;49.296;11.348;2022-08-19T10:16:29;20.40;51.70
8412;HTU21D;4243;49.296;11.348;2022-08-19T10:18:57;20.65;118.99
8412;HTU21D;4243;49.296;11.348;2022-08-19T10:21:28;20.60;87.20
8412;HTU21D;4243;49.296;11.348;2022-08-19T10:21:31;20.70;118.99
8412;HTU21D;4243;49.296;11.348;2022-08-19T10:24:01;20.76;118.99
8412;HTU21D;4243;49.296;11.348;2022-08-19T10:26:37;20.80;118.99
8412;HTU21D;4243;49.296;11.348;2022-08-19T10:29:08;20.75;118.99
8412;HTU21D;4243;49.296;11.348;2022-08-19T10:31:37;20.63;118.99
8412;HTU21D;4243;49.296;11.348;2022-08-19T10:34:25;20.54;118.99
8412;HTU21D;4243;49.296;11.348;2022-08-19T10:36:55;20.46;118.99
8412;HTU21D;4243;49.296;11.348;2022-08-19T10:39:31;20.42;118.99
8412;HTU21D;4243;49.296;11.348;2022-08-19T10:42:10;20.32;118.99
8412;HTU21D;4243;49.296;11.348;2022-08-19T10:44:38;20.29;118.99
8412;HTU21D;4243;49.296;11.348;2022-08-19T10:47:06;20.11;118.99
8412;HTU21D;4243;49.296;11.348;2022-08-19T10:49:51;20.00;118.99
8412;HTU21D;4243;49.296;11.348;2022-08-19T10:52:45;20.30;99.90
8412;HTU21D;4243;49.296;11.348;2022-08-19T10:52:47;19.88;118.99
8412;HTU21D;4243;49.296;11.348;2022-08-19T10:55:22;19.81;118.99
8412;HTU21D;4243;49.296;11.348;2022-08-19T10:58:16;20.30;99.90
8412;HTU21D;4243;49.296;11.348;2022-08-19T10:58:17;19.77;118.99
8412;HTU21D;4243;49.296;11.348;2022-08-19T11:00:54;20.20;99.90
8412;HTU21D;4243;49.296;11.348;2022-08-19T11:00:56;19.82;118.99
8412;HTU21D;4243;49.296;11.348;2022-08-19T11:03:25;19.81;118.99
8412;HTU21D;4243;49.296;11.348;2022-08-19T11:06:03;19.94;118.99
8412;HTU21D;4243;49.296;11.348;2022-08-19T11:08:34;20.02;118.99
8412;HTU21D;4243;49.296;11.348;2022-08-19T11:11:05;20.50;99.90
8412;HTU21D;4243;49.296;11.348;2022-08-19T11:11:06;20.14;118.99
8412;HTU21D;4243;49.296;11.348;2022-08-19T11:13:36;20.21;118.99
8412;HTU21D;4243;49.296;11.348;2022-08-19T11:16:15;20.35;118.99
8412;HTU21D;4243;49.296;11.348;2022-08-19T11:18:47;20.55;118.99
8412;HTU21D;4243;49.296;11.348;2022-08-19T11:21:23;20.71;118.99
8412;HTU21D;4243;49.296;11.348;2022-08-19T11:23:55;20.79;118.99
8412;HTU21D;4243;49.296;11.348;2022-08-19T11:26:25;21.16;118.99
8412;HTU21D;4243;49.296;11.348;2022-08-19T11:28:52;21.50;118.99
8412;HTU21D;4243;49.296;11.348;2022-08-19T11:28:52;21.90;62.60
8412;HTU21D;4243;49.296;11.348;2022-08-19T11:31:26;21.90;1.00
8412;HTU21D;4243;49.296;11.348;2022-08-19T11:31:28;21.65;118.99
8412;HTU21D;4243;49.296;11.348;2022-08-19T11:33:58;21.80;1.00
8412;HTU21D;4243;49.296;11.348;2022-08-19T11:34:00;21.61;118.99
8412;HTU21D;4243;49.296;11.348;2022-08-19T11:36:31;21.45;118.99
8412;HTU21D;4243;49.296;11.348;2022-08-19T11:39:00;21.54;118.99
8412;HTU21D;4243;49.296;11.348;2022-08-19T11:41:28;21.72;118.99
8412;HTU21D;4243;49.296;11.348;2022-08-19T11:43:55;21.97;118.99
8412;HTU21D;4243;49.296;11.348;2022-08-19T11:43:55;21.80;1.00
8412;HTU21D;4243;49.296;11.348;2022-08-19T11:46:25;21.90;1.00
8412;HTU21D;4243;49.296;11.348;2022-08-19T11:46:25;22.23;118.99
8412;HTU21D;4243;49.296;11.348;2022-08-19T11:49:00;22.51;118.99
8412;HTU21D;4243;49.296;11.348;2022-08-19T11:51:29;22.72;118.99
8412;HTU21D;4243;49.296;11.348;2022-08-19T11:53:59;22.58;118.99
8412;HTU21D;4243;49.296;11.348;2022-08-19T11:56:27;21.80;1.00
8412;HTU21D;4243;49.296;11.348;2022-08-19T11:56:28;22.55;118.99
8412;HTU21D;4243;49.296;11.348;2022-08-19T11:58:56;22.55;118.99
8412;HTU21D;4243;49.296;11.348;2022-08-19T12:01:25;22.60;118.99
8412;HTU21D;4243;49.296;11.348;2022-08-19T12:03:55;22.64;118.99
8412;HTU21D;4243;49.296;11.348;2022-08-19T12:06:29;22.68;118.99
8412;HTU21D;4243;49.296;11.348;2022-08-19T12:09:01;22.67;118.99
8412;HTU21D;4243;49.296;11.348;2022-08-19T12:11:31;22.57;118.99
8412;HTU21D;4243;49.296;11.348;2022-08-19T12:14:01;22.50;118.99
8412;HTU21D;4243;49.296;11.348;2022-08-19T12:16:30;22.73;118.99
8412;HTU21D;4243;49.296;11.348;2022-08-19T12:16:30;21.90;1.00
8412;HTU21D;4243;49.296;11.348;2022-08-19T12:19:00;22.97;118.99
8412;HTU21D;4243;49.296;11.348;2022-08-19T12:21:32;21.90;99.90
8412;HTU21D;4243;49.296;11.348;2022-08-19T12:21:34;22.95;118.99
8412;HTU21D;4243;49.296;11.348;2022-08-19T12:24:03;22.90;118.99
8412;HTU21D;4243;49.296;11.348;2022-08-19T12:26:33;22.85;118.99
8412;HTU21D;4243;49.296;11.348;2022-08-19T12:29:19;22.68;118.99
8412;HTU21D;4243;49.296;11.348;2022-08-19T12:31:50;22.49;118.99
8412;HTU21D;4243;49.296;11.348;2022-08-19T12:34:18;22.36;118.99
8412;HTU21D;4243;49.296;11.348;2022-08-19T12:36:47;22.14;118.99
8412;HTU21D;4243;49.296;11.348;2022-08-19T12:39:16;22.06;118.99
8412;HTU21D;4243;49.296;11.348;2022-08-19T12:41:43;21.89;118.99
8412;HTU21D;4243;49.296;11.348;2022-08-19T12:44:22;21.70;118.99
8412;HTU21D;4243;49.296;11.348;2022-08-19T12:46:56;21.57;118.99
8412;HTU21D;4243;49.296;11.348;2022-08-19T12:49:24;21.52;118.99
8412;HTU21D;4243;49.296;11.348;2022-08-19T12:52:12;21.25;118.99
8412;HTU21D;4243;49.296;11.348;2022-08-19T12:54:49;21.13;118.99
8412;HTU21D;4243;49.296;11.348;2022-08-19T12:57:22;21.16;118.99
8412;HTU21D;4243;49.296;11.348;2022-08-19T13:00:05;21.10;118.99
8412;HTU21D;4243;49.296;11.348;2022-08-19T13:02:42;21.10;118.99
8412;HTU21D;4243;49.296;11.348;2022-08-19T13:05:13;21.30;1.00
8412;HTU21D;4243;49.296;11.348;2022-08-19T13:05:14;21.22;118.99
8412;HTU21D;4243;49.296;11.348;2022-08-19T13:07:43;21.16;118.99
8412;HTU21D;4243;49.296;11.348;2022-08-19T13:10:14;21.30;1.00
8412;HTU21D;4243;49.296;11.348;2022-08-19T13:10:19;21.08;118.99
8412;HTU21D;4243;49.296;11.348;2022-08-19T13:12:50;21.50;1.00
8412;HTU21D;4243;49.296;11.348;2022-08-19T13:12:51;21.16;118.99
8412;HTU21D;4243;49.296;11.348;2022-08-19T13:15:21;21.50;1.00
8412;HTU21D;4243;49.296;11.348;2022-08-19T13:15:22;21.20;118.99
8412;HTU21D;4243;49.296;11.348;2022-08-19T13:17:52;21.70;1.00
8412;HTU21D;4243;49.296;11.348;2022-08-19T13:17:53;21.40;118.99
8412;HTU21D;4243;49.296;11.348;2022-08-19T13:20:21;21.47;118.99
8412;HTU21D;4243;49.296;11.348;2022-08-19T13:22:52;21.50;118.99
8412;HTU21D;4243;49.296;11.348;2022-08-19T13:25:20;21.61;118.99
8412;HTU21D;4243;49.296;11.348;2022-08-19T13:27:49;21.61;118.99